Time;durP1;ratioP1;P1;durP2;ratioP2;P2;SDS_P1;SDS_P2;PMS_P1;PMS_P2;Temp;Humidity;BMP_temperature;BMP_pressure;BME280_temperature;BME280_humidity;BME280_pressure;Samples;Min_cycle;Max_cycle;Signal;HPM_P1;HPM_P2
2022/03/03 00:00:20;;;;;;;12.75;9.00;;;;;;;8.85;43.95;101969.47;5102372;28;20109;-65
2022/03/03 00:02:48;;;;;;;14.43;9.70;;;;;;;8.81;44.34;101960.97;5094980;28;20044;-65
2022/03/03 00:05:16;;;;;;;15.20;9.27;;;;;;;8.82;44.97;101964.47;5102672;28;20113;-64
2022/03/03 00:07:44;;;;;;;13.68;8.55;;;;;;;8.82;44.67;101959.94;5102153;28;20375;-64
2022/03/03 00:10:12;;;;;;;13.77;9.00;;;;;;;8.81;45.06;101965.50;5101538;28;20108;-66
2022/03/03 00:12:40;;;;;;;19.30;9.52;;;;;;;8.79;44.69;101946.06;5095327;28;20048;-65
2022/03/03 00:15:09;;;;;;;19.48;9.50;;;;;;;8.78;44.64;101961.34;5098180;28;20478;-66
2022/03/03 00:17:37;;;;;;;13.20;8.95;;;;;;;8.76;44.68;101951.81;5086612;28;20060;-65
2022/03/03 00:20:06;;;;;;;15.07;9.02;;;;;;;8.76;45.04;101952.63;5102758;28;20075;-65
2022/03/03 00:22:33;;;;;;;17.13;10.25;;;;;;;8.73;44.22;101949.50;5102604;28;20052;-66
2022/03/03 00:25:01;;;;;;;15.02;10.07;;;;;;;8.70;45.08;101937.28;5097818;28;20509;-66
2022/03/03 00:27:30;;;;;;;15.95;8.88;;;;;;;8.72;44.47;101950.50;5102512;28;20071;-65
2022/03/03 00:29:57;;;;;;;16.13;9.18;;;;;;;8.70;44.88;101941.81;5093965;28;20075;-65
2022/03/03 00:32:26;;;;;;;14.75;9.98;;;;;;;8.69;44.83;101940.16;5101621;28;20048;-65
2022/03/03 00:34:55;;;;;;;17.63;9.75;;;;;;;8.68;44.65;101943.84;5093146;28;20044;-66
2022/03/03 00:37:22;;;;;;;12.93;9.07;;;;;;;8.65;45.37;101942.41;5101163;28;20528;-64
2022/03/03 00:39:50;;;;;;;18.38;9.32;;;;;;;8.64;44.67;101939.91;5091981;28;20513;-65
2022/03/03 00:42:18;;;;;;;20.13;9.68;;;;;;;8.63;44.62;101943.59;5101065;28;20075;-65
2022/03/03 00:44:46;;;;;;;15.82;9.82;;;;;;;8.62;44.54;101940.06;5106033;28;20044;-64
2022/03/03 00:47:14;;;;;;;14.35;9.80;;;;;;;8.58;44.89;101933.41;5101249;28;20047;-65
2022/03/03 00:49:43;;;;;;;14.00;9.07;;;;;;;8.60;44.88;101941.28;5101994;28;20048;-64
2022/03/03 00:52:10;;;;;;;15.43;9.52;;;;;;;8.59;44.67;101942.28;5102377;28;20051;-65
2022/03/03 00:54:38;;;;;;;15.32;9.43;;;;;;;8.57;44.48;101937.13;5099222;28;20069;-64
2022/03/03 00:57:06;;;;;;;13.07;8.70;;;;;;;8.58;44.42;101943.31;5102041;28;20113;-65
2022/03/03 00:59:34;;;;;;;16.38;9.55;;;;;;;8.56;45.16;101934.63;5102653;28;20111;-65
2022/03/03 01:02:02;;;;;;;14.93;10.68;;;;;;;8.55;44.81;101938.31;5096222;28;20470;-65
2022/03/03 01:04:30;;;;;;;15.35;9.60;;;;;;;8.53;45.11;101941.16;5097053;28;20059;-66
2022/03/03 01:06:59;;;;;;;14.88;10.25;;;;;;;8.52;44.88;101936.81;5091509;28;20075;-65
2022/03/03 01:09:27;;;;;;;19.92;9.43;;;;;;;8.52;45.52;101944.88;5099216;28;20526;-66
2022/03/03 01:11:55;;;;;;;14.43;9.35;;;;;;;8.49;44.61;101937.19;5101947;28;20079;-66
2022/03/03 01:14:23;;;;;;;14.80;10.27;;;;;;;8.49;45.30;101939.88;5102169;28;20098;-66
2022/03/03 01:16:51;;;;;;;16.77;10.40;;;;;;;8.47;45.44;101937.38;5102079;28;20051;-65
2022/03/03 01:19:19;;;;;;;15.50;10.27;;;;;;;8.45;45.02;101935.88;5092255;28;20082;-66
2022/03/03 01:21:47;;;;;;;16.75;10.32;;;;;;;8.44;45.10;101935.06;5101866;28;20076;-66
2022/03/03 01:24:16;;;;;;;15.10;10.20;;;;;;;8.41;45.53;101934.59;5101714;28;20080;-65
2022/03/03 01:26:44;;;;;;;14.40;9.35;;;;;;;8.41;45.13;101940.78;5098842;28;20088;-64
2022/03/03 01:29:12;;;;;;;16.23;9.35;;;;;;;8.39;45.82;101933.94;5100644;28;20051;-63
2022/03/03 01:31:40;;;;;;;17.98;10.18;;;;;;;8.37;45.48;101934.09;5102098;28;20055;-64
2022/03/03 01:34:08;;;;;;;18.17;9.68;;;;;;;8.35;46.06;101924.59;5101544;28;20048;-65
2022/03/03 01:36:36;;;;;;;17.60;10.65;;;;;;;8.26;45.69;101914.94;5089233;28;20131;-65
2022/03/03 01:39:05;;;;;;;14.57;9.93;;;;;;;8.32;45.37;101933.78;5101094;28;20067;-65
2022/03/03 01:41:35;;;;;;;14.40;10.07;;;;;;;8.30;45.83;101921.59;5101886;28;20519;-65
2022/03/03 01:44:03;;;;;;;13.30;9.23;;;;;;;8.29;46.17;101920.75;5100697;28;20134;-65
2022/03/03 01:46:32;;;;;;;13.93;9.38;;;;;;;8.28;45.44;101913.72;5097783;28;20044;-65
2022/03/03 01:49:00;;;;;;;14.35;10.07;;;;;;;8.20;45.69;101903.09;5104744;28;20370;-65
2022/03/03 01:51:27;;;;;;;16.83;10.18;;;;;;;8.25;45.73;101907.91;5104172;28;20040;-65
2022/03/03 01:53:55;;;;;;;14.45;9.93;;;;;;;8.24;46.21;101898.22;5102350;28;20084;-65
2022/03/03 01:56:23;;;;;;;14.65;9.77;;;;;;;8.22;45.65;101909.09;5110885;28;20044;-65
2022/03/03 01:58:52;;;;;;;15.10;9.57;;;;;;;8.20;46.22;101905.78;5097916;28;20072;-65
2022/03/03 02:01:20;;;;;;;14.40;9.63;;;;;;;8.18;45.63;101907.78;5096788;28;20099;-65
2022/03/03 02:03:48;;;;;;;18.02;10.82;;;;;;;8.17;46.06;101906.13;5097141;28;20151;-66
2022/03/03 02:06:16;;;;;;;17.13;9.82;;;;;;;8.15;45.84;101900.13;5104516;28;20108;-65
2022/03/03 02:08:43;;;;;;;15.93;9.77;;;;;;;8.14;46.00;101893.94;5100872;28;20152;-66
2022/03/03 02:11:11;;;;;;;15.43;9.40;;;;;;;8.14;46.40;101887.75;5102515;28;20448;-66
2022/03/03 02:13:39;;;;;;;15.90;10.30;;;;;;;8.11;46.34;101886.25;5104659;28;20067;-65
2022/03/03 02:16:09;;;;;;;18.13;10.55;;;;;;;8.09;45.74;101877.56;5098321;28;20398;-66
2022/03/03 02:18:40;;;;;;;13.70;9.73;;;;;;;8.07;46.64;101878.78;5102730;28;20509;-64
2022/03/03 02:21:12;;;;;;;15.93;10.70;;;;;;;8.04;46.11;101879.13;5105131;28;20048;-65
2022/03/03 02:23:39;;;;;;;17.17;10.48;;;;;;;8.06;46.23;101877.09;5103725;28;20092;-64
2022/03/03 02:26:11;;;;;;;17.52;10.48;;;;;;;8.00;45.50;101872.47;5095489;28;20043;-64
2022/03/03 02:28:40;;;;;;;17.77;9.98;;;;;;;8.02;46.20;101870.44;5084165;28;20433;-64
2022/03/03 02:31:08;;;;;;;15.32;9.85;;;;;;;7.98;46.23;101858.44;5100534;28;20075;-65
2022/03/03 02:33:36;;;;;;;21.45;10.43;;;;;;;7.98;46.00;101869.13;5103787;28;20083;-65
2022/03/03 02:36:22;;;;;;;17.63;10.43;;;;;;;7.97;45.61;101864.78;5100643;28;20047;-65
2022/03/03 02:38:52;;;;;;;15.52;10.77;;;;;;;7.96;45.83;101868.47;5100369;28;20047;-65
2022/03/03 02:41:21;;;;;;;15.30;10.50;;;;;;;7.93;45.32;101866.16;5100507;28;20094;-65
2022/03/03 02:43:49;;;;;;;15.48;10.52;;;;;;;7.93;46.26;101864.31;5091873;28;20079;-65
2022/03/03 02:46:18;;;;;;;15.50;9.77;;;;;;;7.92;45.91;101865.34;5102736;28;20040;-64
2022/03/03 02:48:45;;;;;;;15.10;9.35;;;;;;;7.90;46.57;101861.16;5103585;28;20051;-65
2022/03/03 02:51:14;;;;;;;14.95;10.20;;;;;;;7.89;46.10;101865.69;5101030;28;20144;-64
2022/03/03 02:53:43;;;;;;;16.65;10.80;;;;;;;7.89;45.54;101857.66;5102729;28;20075;-66
2022/03/03 02:56:11;;;;;;;19.33;10.98;;;;;;;7.88;46.20;101865.88;5103357;28;20063;-65
2022/03/03 02:58:38;;;;;;;14.68;9.98;;;;;;;7.84;46.11;101860.03;5102655;28;20084;-65
2022/03/03 03:01:07;;;;;;;15.15;10.65;;;;;;;7.85;46.32;101864.38;5094185;28;20233;-64
2022/03/03 03:03:35;;;;;;;19.67;9.65;;;;;;;7.83;46.40;101853.84;5100149;28;20159;-65
2022/03/03 03:06:03;;;;;;;15.45;10.60;;;;;;;7.83;46.11;101853.84;5100479;28;20082;-64
2022/03/03 03:08:31;;;;;;;16.60;10.38;;;;;;;7.81;46.40;101855.88;5098696;28;20055;-65
2022/03/03 03:11:00;;;;;;;16.00;9.85;;;;;;;7.79;46.05;101857.91;5101874;28;20044;-65
2022/03/03 03:13:28;;;;;;;15.50;9.75;;;;;;;7.77;46.16;101853.75;5101561;28;20063;-65
2022/03/03 03:15:56;;;;;;;16.08;10.57;;;;;;;7.76;45.79;101862.78;5097789;28;20406;-65
2022/03/03 03:18:24;;;;;;;19.58;10.93;;;;;;;7.75;46.46;101853.91;5102529;28;20044;-65
2022/03/03 03:20:53;;;;;;;16.55;11.00;;;;;;;7.73;46.75;101860.47;5100082;28;20100;-64
2022/03/03 03:23:23;;;;;;;17.75;10.55;;;;;;;7.70;46.47;101858.97;5102516;28;20074;-65
2022/03/03 03:25:51;;;;;;;14.68;10.50;;;;;;;7.70;46.52;101855.47;5065997;28;1066877;-65
2022/03/03 03:28:21;;;;;;;17.20;11.00;;;;;;;7.68;46.16;101854.81;5098978;28;20214;-65
2022/03/03 03:30:49;;;;;;;14.85;10.50;;;;;;;7.63;46.42;101847.31;5103887;28;20052;-63
2022/03/03 03:33:17;;;;;;;18.05;11.85;;;;;;;7.64;46.66;101842.81;5103755;28;20451;-64
2022/03/03 03:35:45;;;;;;;14.35;9.45;;;;;;;7.60;46.72;101836.13;5099642;28;20049;-65
2022/03/03 03:38:13;;;;;;;16.65;10.15;;;;;;;7.62;46.54;101839.47;5102508;28;20048;-66
2022/03/03 03:40:41;;;;;;;19.73;10.93;;;;;;;7.59;46.76;101843.34;5103962;28;20052;-65
2022/03/03 03:43:09;;;;;;;18.92;11.02;;;;;;;7.59;46.58;101846.00;5100575;28;20040;-64
2022/03/03 03:45:38;;;;;;;16.60;10.63;;;;;;;7.59;46.38;101839.81;5103290;28;20077;-65
2022/03/03 03:48:06;;;;;;;15.35;10.48;;;;;;;7.57;46.67;101839.16;5103832;28;20047;-65
2022/03/03 03:50:33;;;;;;;15.85;10.07;;;;;;;7.55;46.65;101839.34;5102999;28;20420;-65
2022/03/03 03:53:01;;;;;;;14.65;10.20;;;;;;;7.55;46.40;101831.31;5094839;28;20071;-64
2022/03/03 03:55:29;;;;;;;18.25;10.90;;;;;;;7.54;46.56;101826.16;5102744;28;20048;-64
2022/03/03 03:57:57;;;;;;;16.60;10.27;;;;;;;7.52;46.21;101820.97;5102016;28;20048;-62
2022/03/03 04:00:24;;;;;;;16.90;11.73;;;;;;;7.50;46.28;101823.00;5100380;28;20075;-65
2022/03/03 04:02:53;;;;;;;16.67;10.25;;;;;;;7.47;46.45;101823.34;5089712;28;20059;-65
2022/03/03 04:05:22;;;;;;;18.08;11.50;;;;;;;7.47;46.22;101826.03;5097630;28;20051;-65
2022/03/03 04:07:49;;;;;;;17.35;10.68;;;;;;;7.46;46.32;101827.03;5102926;28;20423;-65
2022/03/03 04:10:17;;;;;;;17.15;10.90;;;;;;;7.43;46.32;101830.06;5098545;28;20189;-66
2022/03/03 04:12:45;;;;;;;14.05;10.10;;;;;;;7.44;46.30;101831.72;5096747;28;20052;-66
2022/03/03 04:15:13;;;;;;;14.93;10.52;;;;;;;7.40;46.39;101830.41;5094405;28;20051;-66
2022/03/03 04:17:41;;;;;;;16.50;10.93;;;;;;;7.30;47.00;101817.28;5097221;28;20056;-64
2022/03/03 04:20:11;;;;;;;16.15;10.85;;;;;;;7.39;46.65;101832.25;5102184;28;20103;-65
2022/03/03 04:22:40;;;;;;;20.83;11.60;;;;;;;7.37;46.65;101823.59;5096101;28;20076;-64
2022/03/03 04:25:10;;;;;;;17.58;11.27;;;;;;;7.36;46.32;101819.25;5096470;28;20073;-64
2022/03/03 04:27:38;;;;;;;15.75;11.18;;;;;;;7.28;46.68;101795.22;5099954;28;20135;-64
2022/03/03 04:30:09;;;;;;;16.75;10.70;;;;;;;7.34;46.90;101807.91;5101713;28;20089;-64
2022/03/03 04:32:37;;;;;;;17.10;10.80;;;;;;;7.32;46.46;101806.41;5094541;28;20109;-64
2022/03/03 04:35:05;;;;;;;18.83;11.20;;;;;;;7.31;46.93;101802.91;5101652;28;20048;-65
2022/03/03 04:37:35;;;;;;;17.17;10.80;;;;;;;7.28;46.37;101792.56;5098926;28;20144;-64
2022/03/03 04:40:04;;;;;;;16.40;10.93;;;;;;;7.30;46.18;101793.22;5101718;28;20246;-65
2022/03/03 04:42:32;;;;;;;17.17;10.07;;;;;;;7.29;46.40;101798.75;5101826;28;20052;-65
2022/03/03 04:45:00;;;;;;;16.05;10.05;;;;;;;7.28;46.81;101786.38;5098966;28;20079;-65
2022/03/03 04:47:28;;;;;;;18.58;9.98;;;;;;;7.28;46.59;101799.75;5102664;28;20078;-64
2022/03/03 04:49:56;;;;;;;15.93;10.50;;;;;;;7.27;47.23;101795.41;5099107;28;20572;-64
2022/03/03 04:52:24;;;;;;;16.40;11.10;;;;;;;7.25;46.80;101787.56;5098340;28;20072;-64
2022/03/03 04:54:53;;;;;;;14.88;10.38;;;;;;;7.19;46.72;101770.38;5101964;28;20063;-64
2022/03/03 04:57:21;;;;;;;17.42;11.23;;;;;;;7.24;46.21;101780.56;5101287;28;20040;-63
2022/03/03 04:59:49;;;;;;;16.92;10.50;;;;;;;7.23;46.24;101781.56;5100604;28;20101;-62
2022/03/03 05:02:17;;;;;;;16.75;11.25;;;;;;;7.24;46.68;101785.06;5093653;28;20044;-62
2022/03/03 05:04:45;;;;;;;18.17;10.90;;;;;;;7.16;46.69;101770.75;5099835;28;20047;-65
2022/03/03 05:07:13;;;;;;;18.05;10.80;;;;;;;7.19;46.67;101780.25;5097808;28;20074;-64
2022/03/03 05:09:40;;;;;;;14.23;9.40;;;;;;;7.18;46.38;101784.75;5096854;28;20507;-65
2022/03/03 05:12:10;;;;;;;16.42;10.98;;;;;;;7.15;46.59;101798.47;5101223;28;20082;-64
2022/03/03 05:14:38;;;;;;;19.33;11.63;;;;;;;7.14;46.34;101796.00;5101529;28;20051;-65
2022/03/03 05:17:06;;;;;;;20.50;11.38;;;;;;;7.14;46.94;101791.47;5097533;28;20044;-65
2022/03/03 05:19:33;;;;;;;15.18;10.70;;;;;;;7.12;46.23;101781.97;5101322;28;20093;-66
2022/03/03 05:22:01;;;;;;;22.10;10.80;;;;;;;7.10;46.77;101783.97;5094185;28;20260;-65
2022/03/03 05:24:29;;;;;;;18.90;10.30;;;;;;;7.08;46.44;101776.13;5098428;28;20525;-66
2022/03/03 05:26:57;;;;;;;17.17;10.48;;;;;;;7.07;46.13;101787.84;5099442;28;20074;-66
2022/03/03 05:29:27;;;;;;;22.10;10.43;;;;;;;7.07;46.52;101792.34;5088712;28;20086;-66
2022/03/03 05:31:57;;;;;;;18.80;10.30;;;;;;;7.05;46.75;101797.88;5097848;28;20052;-65
2022/03/03 05:34:26;;;;;;;18.90;10.82;;;;;;;7.04;46.35;101793.53;5098410;28;20048;-66
2022/03/03 05:36:54;;;;;;;16.20;10.63;;;;;;;7.02;46.22;101787.53;5100232;28;20137;-64
2022/03/03 05:39:23;;;;;;;18.10;11.00;;;;;;;7.01;46.65;101791.22;5098952;28;20046;-65
2022/03/03 05:41:51;;;;;;;15.18;9.93;;;;;;;6.97;46.60;101784.56;5101309;28;20067;-65
2022/03/03 05:44:19;;;;;;;20.73;10.68;;;;;;;7.00;46.51;101794.06;5100820;28;20079;-65
2022/03/03 05:46:49;;;;;;;21.52;10.13;;;;;;;6.93;46.54;101788.63;5100635;28;20044;-65
2022/03/03 05:49:19;;;;;;;16.95;10.70;;;;;;;6.97;46.40;101799.75;5101020;28;20080;-63
2022/03/03 05:51:46;;;;;;;17.90;11.35;;;;;;;6.96;46.55;101793.56;5096355;28;20521;-65
2022/03/03 05:54:14;;;;;;;19.88;10.75;;;;;;;6.96;45.91;101798.91;5096791;28;20068;-64
2022/03/03 05:56:45;;;;;;;16.63;10.10;;;;;;;6.92;46.75;101794.13;5101151;28;20059;-65
2022/03/03 05:59:15;;;;;;;16.35;10.32;;;;;;;6.94;46.62;101798.25;5100011;28;20601;-64
2022/03/03 06:01:44;;;;;;;17.38;10.38;;;;;;;6.93;46.77;101793.13;5097267;28;20060;-65
2022/03/03 06:04:16;;;;;;;19.02;11.88;;;;;;;6.98;46.38;101796.91;5096576;28;20052;-66
2022/03/03 06:06:53;;;;;;;15.57;10.43;;;;;;;7.12;46.19;101798.84;5095947;28;20036;-64
2022/03/03 06:09:26;;;;;;;16.88;10.52;;;;;;;7.26;46.06;101791.06;5092001;28;20076;-64
2022/03/03 06:12:02;;;;;;;17.83;9.73;;;;;;;7.41;45.36;101786.63;5100469;28;20406;-65
2022/03/03 06:14:37;;;;;;;19.33;10.55;;;;;;;7.46;45.06;101781.56;5096141;28;20184;-66
2022/03/03 06:17:05;;;;;;;19.30;10.35;;;;;;;7.41;45.48;101783.94;5100352;28;20123;-65
2022/03/03 06:19:40;;;;;;;16.52;10.60;;;;;;;7.42;45.29;101788.28;5099374;28;20047;-65
2022/03/03 06:22:09;;;;;;;18.70;10.52;;;;;;;7.36;45.64;101784.47;5098164;28;20044;-66
2022/03/03 06:24:36;;;;;;;15.40;9.48;;;;;;;7.32;45.50;101782.34;5097582;28;20101;-65
2022/03/03 06:27:05;;;;;;;14.77;10.15;;;;;;;7.30;45.45;101784.34;5100267;28;20469;-65
2022/03/03 06:29:33;;;;;;;16.95;10.48;;;;;;;7.39;45.63;101780.63;5099942;28;20059;-66
2022/03/03 06:32:02;;;;;;;17.33;10.15;;;;;;;7.47;45.26;101777.88;5099902;28;20051;-65
2022/03/03 06:34:30;;;;;;;15.35;10.68;;;;;;;7.63;44.81;101792.97;5100412;28;20124;-68
2022/03/03 06:36:59;;;;;;;14.93;9.95;;;;;;;7.76;44.31;101793.22;5103113;28;20047;-66
2022/03/03 06:39:27;;;;;;;18.65;10.45;;;;;;;7.79;43.95;101780.31;5094467;28;20080;-65
2022/03/03 06:41:55;;;;;;;14.75;9.82;;;;;;;7.96;44.06;101790.88;5103853;28;20048;-64
2022/03/03 06:44:23;;;;;;;17.85;10.27;;;;;;;8.10;43.40;101803.44;5103358;28;20107;-64
2022/03/03 06:46:51;;;;;;;14.00;10.23;;;;;;;8.23;43.22;101795.63;5102965;28;20100;-67
2022/03/03 06:49:19;;;;;;;13.77;9.60;;;;;;;8.32;43.17;101794.50;5102712;28;20103;-67
2022/03/03 06:51:51;;;;;;;15.07;10.35;;;;;;;8.30;43.35;101793.03;5104180;28;20048;-65
2022/03/03 06:54:22;;;;;;;14.18;9.25;;;;;;;8.19;43.13;101805.03;5101049;28;20125;-65
2022/03/03 06:56:52;;;;;;;16.20;10.00;;;;;;;8.04;43.42;101809.53;5101263;28;20076;-66
2022/03/03 06:59:21;;;;;;;13.48;9.98;;;;;;;7.84;43.92;101799.31;5096048;28;20059;-65
2022/03/03 07:01:50;;;;;;;16.05;9.85;;;;;;;7.70;44.27;101805.47;5096709;28;20039;-67
2022/03/03 07:04:19;;;;;;;16.65;10.07;;;;;;;7.59;44.55;101808.56;5099463;28;20074;-67
2022/03/03 07:06:49;;;;;;;13.50;10.45;;;;;;;7.51;44.44;101805.94;5098965;28;20032;-65
2022/03/03 07:09:19;;;;;;;17.02;10.05;;;;;;;7.44;44.89;101815.69;5097001;28;20048;-68
2022/03/03 07:11:49;;;;;;;17.67;10.48;;;;;;;7.37;45.20;101814.72;5097445;28;20058;-68
2022/03/03 07:14:18;;;;;;;14.85;10.23;;;;;;;7.31;45.25;101823.47;5095417;28;20773;-68
2022/03/03 07:16:47;;;;;;;15.40;9.90;;;;;;;7.24;44.92;101822.50;5100446;28;20139;-66
2022/03/03 07:19:29;;;;;;;15.73;10.55;;;;;;;7.18;45.75;101824.88;5096425;28;20040;-65
2022/03/03 07:22:07;;;;;;;16.10;9.70;;;;;;;7.14;45.37;101823.56;5099207;28;20071;-65
2022/03/03 07:24:43;;;;;;;17.50;10.52;;;;;;;7.11;45.47;101823.06;5098547;28;20152;-65
2022/03/03 07:27:20;;;;;;;17.00;10.13;;;;;;;7.07;45.53;101827.94;5098349;28;20036;-65
2022/03/03 07:29:55;;;;;;;14.75;9.55;;;;;;;7.04;45.75;101827.44;5099894;28;20510;-67
2022/03/03 07:32:30;;;;;;;16.38;10.40;;;;;;;7.00;46.09;101826.13;5099519;28;20098;-67
2022/03/03 07:35:02;;;;;;;15.77;9.70;;;;;;;6.99;45.58;101830.63;5096348;28;20047;-68
2022/03/03 07:37:35;;;;;;;17.88;10.38;;;;;;;6.94;45.77;101827.66;5094610;28;20048;-65
2022/03/03 07:40:06;;;;;;;15.82;9.45;;;;;;;6.94;45.73;101833.00;5100556;28;20073;-66
2022/03/03 07:42:36;;;;;;;19.20;10.90;;;;;;;6.92;45.91;101834.22;5100035;28;20146;-65
2022/03/03 07:45:05;;;;;;;17.13;10.82;;;;;;;6.86;46.13;101830.41;5092717;28;20051;-66
2022/03/03 07:47:34;;;;;;;15.93;10.18;;;;;;;6.86;46.31;101830.41;5090832;28;20086;-65
2022/03/03 07:50:02;;;;;;;14.02;9.30;;;;;;;6.86;46.09;101833.06;5096789;28;20055;-64
2022/03/03 07:52:31;;;;;;;15.32;9.82;;;;;;;6.84;46.19;101827.06;5101236;28;20597;-65
2022/03/03 07:54:58;;;;;;;15.45;9.93;;;;;;;6.85;46.33;101826.06;5096717;28;20037;-65
2022/03/03 07:57:34;;;;;;;13.65;9.77;;;;;;;6.83;46.41;101828.91;5100657;28;20480;-65
2022/03/03 08:00:07;;;;;;;15.13;10.10;;;;;;;6.83;46.50;101833.41;5100589;28;20412;-66
2022/03/03 08:02:35;;;;;;;14.73;9.20;;;;;;;6.80;46.43;101831.94;5094254;28;20063;-64
2022/03/03 08:05:05;;;;;;;13.00;9.10;;;;;;;6.81;46.14;101833.59;5097166;28;20075;-65
2022/03/03 08:07:39;;;;;;;14.05;9.75;;;;;;;6.81;45.92;101833.59;5097846;28;20158;-65
2022/03/03 08:10:09;;;;;;;17.40;10.68;;;;;;;6.81;46.35;101838.94;5093466;28;20080;-65
2022/03/03 08:12:38;;;;;;;12.48;9.30;;;;;;;6.79;46.31;101837.44;5099647;28;20347;-65
2022/03/03 08:15:09;;;;;;;17.77;10.18;;;;;;;6.80;46.45;101836.44;5100473;28;20142;-65
2022/03/03 08:17:37;;;;;;;19.13;9.77;;;;;;;6.81;46.12;101840.78;5097690;28;20165;-65
2022/03/03 08:20:08;;;;;;;16.13;10.00;;;;;;;6.81;46.40;101838.09;5097738;28;20066;-66
2022/03/03 08:22:38;;;;;;;16.77;9.82;;;;;;;6.80;46.48;101833.75;5099780;28;20048;-66
2022/03/03 08:25:08;;;;;;;17.42;9.50;;;;;;;6.82;46.52;101837.09;5099108;28;20098;-66
2022/03/03 08:27:37;;;;;;;14.98;9.85;;;;;;;6.80;46.64;101829.25;5097722;28;20228;-63
2022/03/03 08:30:08;;;;;;;13.55;9.02;;;;;;;6.84;46.59;101827.91;5100279;28;20040;-64
2022/03/03 08:32:40;;;;;;;19.75;11.75;;;;;;;6.83;46.24;101823.56;5098493;28;20048;-66
2022/03/03 08:35:14;;;;;;;15.63;10.45;;;;;;;6.81;46.28;101822.06;5093520;28;20637;-64
2022/03/03 08:37:43;;;;;;;15.45;9.20;;;;;;;6.83;46.44;101826.22;5096711;28;20109;-64
2022/03/03 08:40:14;;;;;;;18.38;10.02;;;;;;;6.85;46.66;101815.38;5092391;28;20040;-64
2022/03/03 08:42:46;;;;;;;16.38;9.93;;;;;;;6.88;46.24;101816.88;5094153;28;20075;-65
2022/03/03 08:45:19;;;;;;;15.18;10.20;;;;;;;6.86;46.48;101830.41;5095080;28;20949;-64
2022/03/03 08:47:55;;;;;;;15.65;9.63;;;;;;;6.88;46.01;101825.72;5093195;28;20092;-64
2022/03/03 08:50:30;;;;;;;26.10;11.00;;;;;;;7.03;46.08;101834.63;5097354;28;20044;-65
2022/03/03 08:53:00;;;;;;;15.90;9.68;;;;;;;7.18;45.78;101829.38;5099525;28;20055;-65
2022/03/03 08:55:28;;;;;;;15.40;9.93;;;;;;;7.27;45.43;101828.31;5095817;28;20044;-65
2022/03/03 08:57:58;;;;;;;17.75;9.20;;;;;;;7.47;45.07;101826.03;5099402;28;20052;-65
2022/03/03 09:00:28;;;;;;;15.25;9.20;;;;;;;7.62;44.81;101828.78;5096522;28;20082;-64
2022/03/03 09:02:57;;;;;;;13.40;9.23;;;;;;;7.77;44.59;101819.78;5099929;28;20059;-64
2022/03/03 09:05:25;;;;;;;13.45;8.70;;;;;;;7.91;44.06;101823.53;5099036;28;20059;-63
2022/03/03 09:07:52;;;;;;;13.88;8.77;;;;;;;8.09;43.45;101837.41;5098442;28;20082;-64
2022/03/03 09:10:20;;;;;;;14.02;9.35;;;;;;;8.18;44.09;101835.50;5097340;28;20656;-64
2022/03/03 09:12:49;;;;;;;13.25;9.07;;;;;;;8.32;43.75;101832.00;5097334;28;20063;-64
2022/03/03 09:15:17;;;;;;;15.07;9.40;;;;;;;8.39;43.46;101835.66;5098143;28;20075;-64
2022/03/03 09:17:46;;;;;;;14.27;9.70;;;;;;;8.37;43.00;101829.66;5099827;28;20035;-64
2022/03/03 09:20:15;;;;;;;12.00;8.63;;;;;;;8.27;43.65;101831.72;5096447;28;20497;-64
2022/03/03 09:22:43;;;;;;;14.32;8.88;;;;;;;8.14;43.80;101829.66;5097795;28;20052;-64
2022/03/03 09:25:11;;;;;;;15.05;8.90;;;;;;;8.00;44.22;101830.47;5098851;28;20112;-64
2022/03/03 09:27:39;;;;;;;13.65;8.95;;;;;;;7.89;44.83;101822.88;5099684;28;20045;-66
2022/03/03 09:30:09;;;;;;;14.93;9.57;;;;;;;7.82;44.75;101822.75;5097113;28;20048;-65
2022/03/03 09:32:38;;;;;;;14.45;8.98;;;;;;;7.71;45.09;101804.44;5091124;28;20080;-65
2022/03/03 09:35:08;;;;;;;13.95;9.43;;;;;;;7.72;45.47;101816.00;5097228;28;20578;-67
2022/03/03 09:37:36;;;;;;;21.73;8.98;;;;;;;7.68;45.70;101809.31;5095766;28;20530;-66
2022/03/03 09:40:06;;;;;;;12.95;8.40;;;;;;;7.64;45.66;101811.53;5099246;28;20421;-65
2022/03/03 09:42:35;;;;;;;15.30;9.25;;;;;;;7.61;45.77;101817.25;5098871;28;20111;-66
2022/03/03 09:45:04;;;;;;;16.13;9.43;;;;;;;7.60;45.95;101810.22;5096395;28;20036;-64
2022/03/03 09:47:34;;;;;;;14.25;9.38;;;;;;;7.59;46.06;101815.75;5099284;28;20075;-64
2022/03/03 09:50:02;;;;;;;14.40;9.30;;;;;;;7.58;45.84;101812.25;5099919;28;20051;-64
2022/03/03 09:52:32;;;;;;;13.85;9.43;;;;;;;7.57;46.02;101817.78;5097510;28;20281;-63
2022/03/03 09:55:01;;;;;;;13.00;9.13;;;;;;;7.55;46.44;101819.78;5099376;28;20048;-64
2022/03/03 09:57:29;;;;;;;18.13;9.07;;;;;;;7.55;45.79;101811.78;5096949;28;20052;-64
2022/03/03 09:59:57;;;;;;;13.05;9.07;;;;;;;7.55;45.90;101811.78;5090917;28;20044;-63
2022/03/03 10:02:26;;;;;;;14.77;9.15;;;;;;;7.56;46.58;101810.75;5097973;28;20111;-64
2022/03/03 10:04:56;;;;;;;13.30;8.55;;;;;;;7.55;46.62;101804.56;5098454;28;20051;-63
2022/03/03 10:07:25;;;;;;;11.65;8.05;;;;;;;7.56;47.34;101811.59;5097423;28;20170;-64
2022/03/03 10:10:00;;;;;;;17.05;8.57;;;;;;;7.60;47.15;101820.09;5102493;28;20322;-64
2022/03/03 10:12:43;;;;;;;13.98;8.20;;;;;;;7.62;47.26;101810.03;5101561;28;20567;-63
2022/03/03 10:15:14;;;;;;;14.13;9.02;;;;;;;7.63;47.73;101812.53;5103875;28;20086;-63
2022/03/03 10:17:42;;;;;;;13.85;8.18;;;;;;;7.61;47.13;101803.84;5102616;28;20074;-64
2022/03/03 10:20:11;;;;;;;13.45;8.95;;;;;;;7.65;47.31;101815.03;5100121;28;20044;-64
2022/03/03 10:22:43;;;;;;;14.68;8.65;;;;;;;7.67;47.44;101810.34;5101734;28;20199;-65
2022/03/03 10:25:14;;;;;;;14.90;8.82;;;;;;;7.67;47.73;101815.69;5103425;28;20052;-66
2022/03/03 10:27:42;;;;;;;12.95;8.60;;;;;;;7.72;47.69;101814.13;5101878;28;20070;-66
2022/03/03 10:30:11;;;;;;;17.95;9.80;;;;;;;7.75;47.61;101808.44;5100997;28;20519;-64
2022/03/03 10:32:39;;;;;;;15.05;9.10;;;;;;;7.78;47.75;101801.88;5100044;28;20139;-60
2022/03/03 10:35:15;;;;;;;14.82;8.80;;;;;;;7.80;47.86;101799.88;5097016;28;20044;-63
2022/03/03 10:37:43;;;;;;;14.23;8.23;;;;;;;7.78;48.07;101789.34;5100698;28;20536;-65
2022/03/03 10:40:15;;;;;;;12.32;7.72;;;;;;;7.88;48.14;101789.09;5098143;28;20094;-64
2022/03/03 10:42:44;;;;;;;12.05;7.72;;;;;;;7.91;48.02;101783.38;5095931;28;20040;-64
2022/03/03 10:45:15;;;;;;;14.05;9.13;;;;;;;7.92;47.94;101794.91;5099578;28;20078;-64
2022/03/03 10:47:47;;;;;;;14.13;8.63;;;;;;;7.93;47.51;101793.91;5100271;28;20040;-64
2022/03/03 10:50:15;;;;;;;17.83;8.75;;;;;;;7.94;46.78;101785.69;5100927;28;20523;-62
2022/03/03 10:52:44;;;;;;;14.95;8.77;;;;;;;7.95;47.14;101784.69;5101206;28;20052;-63
2022/03/03 10:55:17;;;;;;;13.68;7.88;;;;;;;8.05;47.62;101787.09;5102102;28;20047;-63
2022/03/03 10:57:46;;;;;;;12.40;7.93;;;;;;;8.08;47.25;101790.25;5101629;28;20062;-63
2022/03/03 11:00:16;;;;;;;15.35;7.97;;;;;;;8.10;47.67;101782.84;5103134;28;20097;-64
2022/03/03 11:02:47;;;;;;;13.65;7.57;;;;;;;8.12;47.71;101786.19;5102405;28;21399;-64
2022/03/03 11:05:16;;;;;;;10.70;7.47;;;;;;;8.14;47.71;101778.81;5101208;28;20057;-64
2022/03/03 11:07:45;;;;;;;15.68;8.63;;;;;;;8.19;47.74;101777.41;5102587;28;20087;-63
2022/03/03 11:10:17;;;;;;;12.63;8.65;;;;;;;8.22;46.85;101777.06;5097989;28;20051;-65
2022/03/03 11:12:45;;;;;;;11.40;7.70;;;;;;;8.23;47.51;101776.88;5100092;28;20044;-63
2022/03/03 11:15:15;;;;;;;14.00;7.43;;;;;;;8.26;47.40;101784.53;5099707;28;20090;-63
2022/03/03 11:17:43;;;;;;;12.82;7.93;;;;;;;8.29;47.49;101778.81;5102241;28;20083;-62
2022/03/03 11:20:14;;;;;;;11.23;6.95;;;;;;;8.33;48.00;101780.13;5096899;28;20047;-62
2022/03/03 11:22:44;;;;;;;10.77;7.03;;;;;;;8.34;47.67;101781.81;5099686;28;20552;-61
2022/03/03 11:25:17;;;;;;;14.88;7.57;;;;;;;8.38;47.71;101776.91;5101882;28;20051;-64
2022/03/03 11:27:45;;;;;;;13.73;7.57;;;;;;;8.27;47.61;101756.75;5098420;28;20047;-64
2022/03/03 11:30:27;;;;;;;13.88;7.63;;;;;;;8.42;47.46;101767.50;5101702;28;20106;-65